sensor_id;sensor_type;location;lat;lon;timestamp;P1;durP1;ratioP1;P2;durP2;ratioP2
46731;SDS011;32477;51.474;5.696;2024-03-08T00:00:17;62.70;;;22.80;;
46731;SDS011;32477;51.474;5.696;2024-03-08T00:02:46;56.25;;;22.75;;
46731;SDS011;32477;51.474;5.696;2024-03-08T00:05:12;52.92;;;23.17;;
46731;SDS011;32477;51.474;5.696;2024-03-08T00:07:39;52.25;;;22.23;;
46731;SDS011;32477;51.474;5.696;2024-03-08T00:10:07;56.92;;;22.13;;
46731;SDS011;32477;51.474;5.696;2024-03-08T00:12:39;57.65;;;24.35;;
46731;SDS011;32477;51.474;5.696;2024-03-08T00:15:10;61.67;;;24.88;;
46731;SDS011;32477;51.474;5.696;2024-03-08T00:17:38;62.10;;;24.83;;
46731;SDS011;32477;51.474;5.696;2024-03-08T00:20:05;63.53;;;23.60;;
46731;SDS011;32477;51.474;5.696;2024-03-08T00:22:34;56.80;;;23.30;;
46731;SDS011;32477;51.474;5.696;2024-03-08T00:25:00;61.45;;;25.73;;
46731;SDS011;32477;51.474;5.696;2024-03-08T00:27:27;53.80;;;22.42;;
46731;SDS011;32477;51.474;5.696;2024-03-08T00:29:56;55.90;;;22.30;;
46731;SDS011;32477;51.474;5.696;2024-03-08T00:32:22;62.92;;;22.70;;
46731;SDS011;32477;51.474;5.696;2024-03-08T00:34:49;55.05;;;23.40;;
46731;SDS011;32477;51.474;5.696;2024-03-08T00:37:19;54.72;;;20.88;;
46731;SDS011;32477;51.474;5.696;2024-03-08T00:39:46;46.90;;;20.90;;
46731;SDS011;32477;51.474;5.696;2024-03-08T00:42:18;62.83;;;23.60;;
46731;SDS011;32477;51.474;5.696;2024-03-08T00:44:45;49.25;;;22.02;;
46731;SDS011;32477;51.474;5.696;2024-03-08T00:47:11;53.63;;;22.88;;
46731;SDS011;32477;51.474;5.696;2024-03-08T00:49:37;52.75;;;21.58;;
46731;SDS011;32477;51.474;5.696;2024-03-08T00:52:06;59.92;;;22.70;;
46731;SDS011;32477;51.474;5.696;2024-03-08T00:54:32;56.03;;;23.60;;
46731;SDS011;32477;51.474;5.696;2024-03-08T00:56:58;54.78;;;21.20;;
46731;SDS011;32477;51.474;5.696;2024-03-08T00:59:24;57.38;;;22.50;;
46731;SDS011;32477;51.474;5.696;2024-03-08T01:01:50;49.65;;;20.73;;
46731;SDS011;32477;51.474;5.696;2024-03-08T01:04:16;59.15;;;23.40;;
46731;SDS011;32477;51.474;5.696;2024-03-08T01:06:42;53.90;;;21.90;;
46731;SDS011;32477;51.474;5.696;2024-03-08T01:09:10;47.80;;;21.58;;
46731;SDS011;32477;51.474;5.696;2024-03-08T01:11:36;47.28;;;20.80;;
46731;SDS011;32477;51.474;5.696;2024-03-08T01:14:03;45.45;;;20.58;;
46731;SDS011;32477;51.474;5.696;2024-03-08T01:16:28;53.33;;;21.42;;
46731;SDS011;32477;51.474;5.696;2024-03-08T01:18:54;44.55;;;21.70;;
46731;SDS011;32477;51.474;5.696;2024-03-08T01:21:19;51.90;;;22.25;;
46731;SDS011;32477;51.474;5.696;2024-03-08T01:23:45;53.72;;;19.92;;
46731;SDS011;32477;51.474;5.696;2024-03-08T01:26:11;50.78;;;21.92;;
46731;SDS011;32477;51.474;5.696;2024-03-08T01:28:37;50.65;;;23.27;;
46731;SDS011;32477;51.474;5.696;2024-03-08T01:31:03;51.20;;;21.20;;
46731;SDS011;32477;51.474;5.696;2024-03-08T01:33:29;42.47;;;20.92;;
46731;SDS011;32477;51.474;5.696;2024-03-08T01:35:55;45.17;;;20.85;;
46731;SDS011;32477;51.474;5.696;2024-03-08T01:38:22;51.92;;;23.85;;
46731;SDS011;32477;51.474;5.696;2024-03-08T01:40:48;48.47;;;22.23;;
46731;SDS011;32477;51.474;5.696;2024-03-08T01:43:17;46.78;;;21.92;;
46731;SDS011;32477;51.474;5.696;2024-03-08T01:45:44;52.38;;;22.90;;
46731;SDS011;32477;51.474;5.696;2024-03-08T01:48:09;50.33;;;22.20;;
46731;SDS011;32477;51.474;5.696;2024-03-08T01:50:35;49.97;;;22.48;;
46731;SDS011;32477;51.474;5.696;2024-03-08T01:53:01;44.78;;;21.77;;
46731;SDS011;32477;51.474;5.696;2024-03-08T01:55:28;45.30;;;20.58;;
46731;SDS011;32477;51.474;5.696;2024-03-08T01:57:53;44.38;;;21.27;;
46731;SDS011;32477;51.474;5.696;2024-03-08T02:00:20;54.17;;;22.58;;
46731;SDS011;32477;51.474;5.696;2024-03-08T02:02:46;50.20;;;21.25;;
46731;SDS011;32477;51.474;5.696;2024-03-08T02:05:14;45.15;;;21.88;;
46731;SDS011;32477;51.474;5.696;2024-03-08T02:07:43;50.70;;;21.73;;
46731;SDS011;32477;51.474;5.696;2024-03-08T02:10:11;52.22;;;21.35;;
46731;SDS011;32477;51.474;5.696;2024-03-08T02:12:40;43.85;;;20.30;;
46731;SDS011;32477;51.474;5.696;2024-03-08T02:15:06;53.35;;;22.15;;
46731;SDS011;32477;51.474;5.696;2024-03-08T02:17:32;54.00;;;21.92;;
46731;SDS011;32477;51.474;5.696;2024-03-08T02:20:01;49.55;;;22.33;;
46731;SDS011;32477;51.474;5.696;2024-03-08T02:22:28;47.85;;;24.23;;
46731;SDS011;32477;51.474;5.696;2024-03-08T02:24:55;49.45;;;23.42;;
46731;SDS011;32477;51.474;5.696;2024-03-08T02:27:24;57.65;;;23.15;;
46731;SDS011;32477;51.474;5.696;2024-03-08T02:29:54;46.20;;;20.92;;
46731;SDS011;32477;51.474;5.696;2024-03-08T02:32:21;40.25;;;21.17;;
46731;SDS011;32477;51.474;5.696;2024-03-08T02:34:47;45.90;;;21.80;;
46731;SDS011;32477;51.474;5.696;2024-03-08T02:37:13;51.33;;;22.63;;
46731;SDS011;32477;51.474;5.696;2024-03-08T02:39:39;47.53;;;21.55;;
46731;SDS011;32477;51.474;5.696;2024-03-08T02:42:04;51.22;;;23.00;;
46731;SDS011;32477;51.474;5.696;2024-03-08T02:44:30;51.85;;;23.75;;
46731;SDS011;32477;51.474;5.696;2024-03-08T02:46:55;67.68;;;22.58;;
46731;SDS011;32477;51.474;5.696;2024-03-08T02:49:21;48.63;;;23.33;;
46731;SDS011;32477;51.474;5.696;2024-03-08T02:51:47;52.78;;;23.25;;
46731;SDS011;32477;51.474;5.696;2024-03-08T02:54:12;47.25;;;22.08;;
46731;SDS011;32477;51.474;5.696;2024-03-08T02:56:38;48.60;;;22.08;;
46731;SDS011;32477;51.474;5.696;2024-03-08T02:59:04;55.92;;;23.67;;
46731;SDS011;32477;51.474;5.696;2024-03-08T03:01:29;54.08;;;23.13;;
46731;SDS011;32477;51.474;5.696;2024-03-08T03:03:55;51.75;;;24.15;;
46731;SDS011;32477;51.474;5.696;2024-03-08T03:06:20;50.65;;;22.30;;
46731;SDS011;32477;51.474;5.696;2024-03-08T03:08:46;47.78;;;23.20;;
46731;SDS011;32477;51.474;5.696;2024-03-08T03:11:12;52.50;;;24.85;;
46731;SDS011;32477;51.474;5.696;2024-03-08T03:13:38;53.78;;;23.60;;
46731;SDS011;32477;51.474;5.696;2024-03-08T03:16:04;59.45;;;22.02;;
46731;SDS011;32477;51.474;5.696;2024-03-08T03:18:30;44.92;;;21.98;;
46731;SDS011;32477;51.474;5.696;2024-03-08T03:20:58;46.95;;;21.98;;
46731;SDS011;32477;51.474;5.696;2024-03-08T03:23:23;50.75;;;23.75;;
46731;SDS011;32477;51.474;5.696;2024-03-08T03:25:51;51.80;;;24.50;;
46731;SDS011;32477;51.474;5.696;2024-03-08T03:28:17;51.10;;;22.10;;
46731;SDS011;32477;51.474;5.696;2024-03-08T03:30:46;52.83;;;22.88;;
46731;SDS011;32477;51.474;5.696;2024-03-08T03:33:12;53.60;;;24.40;;
46731;SDS011;32477;51.474;5.696;2024-03-08T03:35:40;50.13;;;23.27;;
46731;SDS011;32477;51.474;5.696;2024-03-08T03:38:06;51.40;;;22.17;;
46731;SDS011;32477;51.474;5.696;2024-03-08T03:40:32;50.63;;;23.65;;
46731;SDS011;32477;51.474;5.696;2024-03-08T03:42:58;53.50;;;22.25;;
46731;SDS011;32477;51.474;5.696;2024-03-08T03:45:24;50.05;;;22.48;;
46731;SDS011;32477;51.474;5.696;2024-03-08T03:47:50;63.40;;;24.35;;
46731;SDS011;32477;51.474;5.696;2024-03-08T03:50:17;55.40;;;23.95;;
46731;SDS011;32477;51.474;5.696;2024-03-08T03:52:44;47.17;;;23.90;;
46731;SDS011;32477;51.474;5.696;2024-03-08T03:55:13;51.88;;;24.33;;
46731;SDS011;32477;51.474;5.696;2024-03-08T03:57:40;48.75;;;22.92;;
46731;SDS011;32477;51.474;5.696;2024-03-08T04:00:06;56.47;;;23.17;;
46731;SDS011;32477;51.474;5.696;2024-03-08T04:02:37;49.00;;;23.88;;
46731;SDS011;32477;51.474;5.696;2024-03-08T04:05:04;47.63;;;23.35;;
46731;SDS011;32477;51.474;5.696;2024-03-08T04:07:30;56.13;;;25.00;;
46731;SDS011;32477;51.474;5.696;2024-03-08T04:09:56;53.55;;;24.48;;
46731;SDS011;32477;51.474;5.696;2024-03-08T04:12:22;56.10;;;24.50;;
46731;SDS011;32477;51.474;5.696;2024-03-08T04:14:48;53.63;;;25.73;;
46731;SDS011;32477;51.474;5.696;2024-03-08T04:17:13;55.80;;;24.05;;
46731;SDS011;32477;51.474;5.696;2024-03-08T04:19:39;50.67;;;24.85;;
46731;SDS011;32477;51.474;5.696;2024-03-08T04:22:05;53.50;;;23.38;;
46731;SDS011;32477;51.474;5.696;2024-03-08T04:24:32;56.75;;;25.13;;
46731;SDS011;32477;51.474;5.696;2024-03-08T04:26:58;60.53;;;25.25;;
46731;SDS011;32477;51.474;5.696;2024-03-08T04:29:24;52.15;;;23.98;;
46731;SDS011;32477;51.474;5.696;2024-03-08T04:31:49;52.70;;;24.70;;
46731;SDS011;32477;51.474;5.696;2024-03-08T04:34:19;52.72;;;22.98;;
46731;SDS011;32477;51.474;5.696;2024-03-08T04:36:46;50.55;;;23.15;;
46731;SDS011;32477;51.474;5.696;2024-03-08T04:39:13;56.45;;;24.30;;
46731;SDS011;32477;51.474;5.696;2024-03-08T04:41:39;55.33;;;23.35;;
46731;SDS011;32477;51.474;5.696;2024-03-08T04:44:05;54.20;;;26.50;;
46731;SDS011;32477;51.474;5.696;2024-03-08T04:46:30;72.03;;;26.17;;
46731;SDS011;32477;51.474;5.696;2024-03-08T04:48:56;69.22;;;25.25;;
46731;SDS011;32477;51.474;5.696;2024-03-08T04:51:24;57.38;;;25.48;;
46731;SDS011;32477;51.474;5.696;2024-03-08T04:53:50;54.80;;;22.35;;
46731;SDS011;32477;51.474;5.696;2024-03-08T04:56:15;55.80;;;24.95;;
46731;SDS011;32477;51.474;5.696;2024-03-08T04:58:41;53.33;;;25.48;;
46731;SDS011;32477;51.474;5.696;2024-03-08T05:01:07;55.75;;;25.58;;
46731;SDS011;32477;51.474;5.696;2024-03-08T05:03:35;50.38;;;22.35;;
46731;SDS011;32477;51.474;5.696;2024-03-08T05:06:01;54.53;;;26.20;;
46731;SDS011;32477;51.474;5.696;2024-03-08T05:08:26;51.63;;;24.52;;
46731;SDS011;32477;51.474;5.696;2024-03-08T05:10:52;51.55;;;24.88;;
46731;SDS011;32477;51.474;5.696;2024-03-08T05:13:18;65.53;;;25.70;;
46731;SDS011;32477;51.474;5.696;2024-03-08T05:15:43;50.92;;;22.35;;
46731;SDS011;32477;51.474;5.696;2024-03-08T05:18:12;58.17;;;26.40;;
46731;SDS011;32477;51.474;5.696;2024-03-08T05:20:39;70.55;;;25.13;;
46731;SDS011;32477;51.474;5.696;2024-03-08T05:23:06;64.88;;;27.55;;
46731;SDS011;32477;51.474;5.696;2024-03-08T05:25:32;59.30;;;26.75;;
46731;SDS011;32477;51.474;5.696;2024-03-08T05:27:57;56.67;;;26.33;;
46731;SDS011;32477;51.474;5.696;2024-03-08T05:30:23;61.85;;;26.95;;
46731;SDS011;32477;51.474;5.696;2024-03-08T05:32:48;56.22;;;27.35;;
46731;SDS011;32477;51.474;5.696;2024-03-08T05:35:14;65.20;;;25.88;;
46731;SDS011;32477;51.474;5.696;2024-03-08T05:37:41;71.18;;;28.85;;
46731;SDS011;32477;51.474;5.696;2024-03-08T05:40:10;57.60;;;25.98;;
46731;SDS011;32477;51.474;5.696;2024-03-08T05:42:35;66.60;;;27.88;;
46731;SDS011;32477;51.474;5.696;2024-03-08T05:45:02;57.35;;;26.60;;
46731;SDS011;32477;51.474;5.696;2024-03-08T05:47:35;60.67;;;26.17;;
46731;SDS011;32477;51.474;5.696;2024-03-08T05:50:00;59.47;;;25.98;;
46731;SDS011;32477;51.474;5.696;2024-03-08T05:52:26;58.55;;;24.90;;
46731;SDS011;32477;51.474;5.696;2024-03-08T05:54:52;55.38;;;25.33;;
46731;SDS011;32477;51.474;5.696;2024-03-08T05:57:17;59.05;;;26.77;;
46731;SDS011;32477;51.474;5.696;2024-03-08T05:59:43;56.58;;;25.35;;
46731;SDS011;32477;51.474;5.696;2024-03-08T06:02:09;54.40;;;26.45;;
46731;SDS011;32477;51.474;5.696;2024-03-08T06:04:35;70.28;;;27.02;;
46731;SDS011;32477;51.474;5.696;2024-03-08T06:07:00;58.80;;;24.63;;
46731;SDS011;32477;51.474;5.696;2024-03-08T06:09:28;64.57;;;27.08;;
46731;SDS011;32477;51.474;5.696;2024-03-08T06:11:54;61.55;;;26.67;;
46731;SDS011;32477;51.474;5.696;2024-03-08T06:14:20;62.42;;;27.40;;
46731;SDS011;32477;51.474;5.696;2024-03-08T06:16:46;68.47;;;27.88;;
46731;SDS011;32477;51.474;5.696;2024-03-08T06:19:12;65.25;;;26.20;;
46731;SDS011;32477;51.474;5.696;2024-03-08T06:21:38;58.28;;;26.83;;
46731;SDS011;32477;51.474;5.696;2024-03-08T06:24:04;59.00;;;26.33;;
46731;SDS011;32477;51.474;5.696;2024-03-08T06:26:30;51.13;;;25.75;;
46731;SDS011;32477;51.474;5.696;2024-03-08T06:28:56;60.25;;;25.75;;
46731;SDS011;32477;51.474;5.696;2024-03-08T06:31:22;65.78;;;25.42;;
46731;SDS011;32477;51.474;5.696;2024-03-08T06:33:47;60.63;;;27.90;;
46731;SDS011;32477;51.474;5.696;2024-03-08T06:36:19;63.00;;;28.25;;
46731;SDS011;32477;51.474;5.696;2024-03-08T06:38:46;67.72;;;27.10;;
46731;SDS011;32477;51.474;5.696;2024-03-08T06:41:15;61.00;;;27.55;;
46731;SDS011;32477;51.474;5.696;2024-03-08T06:43:42;71.22;;;26.25;;
46731;SDS011;32477;51.474;5.696;2024-03-08T06:46:08;51.83;;;24.00;;
46731;SDS011;32477;51.474;5.696;2024-03-08T06:48:34;60.63;;;27.75;;
46731;SDS011;32477;51.474;5.696;2024-03-08T06:51:02;56.30;;;25.42;;
46731;SDS011;32477;51.474;5.696;2024-03-08T06:53:28;62.42;;;26.58;;
46731;SDS011;32477;51.474;5.696;2024-03-08T06:55:53;58.08;;;25.35;;
46731;SDS011;32477;51.474;5.696;2024-03-08T06:58:19;65.47;;;26.92;;
46731;SDS011;32477;51.474;5.696;2024-03-08T07:00:45;56.83;;;27.58;;
46731;SDS011;32477;51.474;5.696;2024-03-08T07:03:11;56.20;;;23.80;;
46731;SDS011;32477;51.474;5.696;2024-03-08T07:05:42;55.22;;;24.58;;
46731;SDS011;32477;51.474;5.696;2024-03-08T07:08:07;52.70;;;25.52;;
46731;SDS011;32477;51.474;5.696;2024-03-08T07:10:33;58.95;;;26.45;;
46731;SDS011;32477;51.474;5.696;2024-03-08T07:13:00;61.72;;;25.58;;
46731;SDS011;32477;51.474;5.696;2024-03-08T07:15:27;64.95;;;25.02;;
46731;SDS011;32477;51.474;5.696;2024-03-08T07:17:53;53.40;;;26.20;;
46731;SDS011;32477;51.474;5.696;2024-03-08T07:20:19;46.58;;;22.42;;
46731;SDS011;32477;51.474;5.696;2024-03-08T07:22:45;53.42;;;23.00;;
46731;SDS011;32477;51.474;5.696;2024-03-08T07:25:17;51.97;;;23.17;;
46731;SDS011;32477;51.474;5.696;2024-03-08T07:27:52;43.50;;;21.70;;
46731;SDS011;32477;51.474;5.696;2024-03-08T07:30:23;41.65;;;21.25;;
46731;SDS011;32477;51.474;5.696;2024-03-08T07:33:08;49.50;;;22.17;;
46731;SDS011;32477;51.474;5.696;2024-03-08T07:35:36;41.92;;;20.85;;
46731;SDS011;32477;51.474;5.696;2024-03-08T07:38:09;42.08;;;20.42;;
46731;SDS011;32477;51.474;5.696;2024-03-08T07:40:38;36.17;;;19.15;;
46731;SDS011;32477;51.474;5.696;2024-03-08T07:43:09;41.38;;;20.88;;
46731;SDS011;32477;51.474;5.696;2024-03-08T07:45:35;43.38;;;20.58;;
46731;SDS011;32477;51.474;5.696;2024-03-08T07:48:04;39.58;;;19.33;;
46731;SDS011;32477;51.474;5.696;2024-03-08T07:50:35;35.95;;;18.23;;
46731;SDS011;32477;51.474;5.696;2024-03-08T07:53:02;40.53;;;18.13;;
46731;SDS011;32477;51.474;5.696;2024-03-08T07:55:28;37.53;;;19.25;;
46731;SDS011;32477;51.474;5.696;2024-03-08T07:57:56;47.15;;;20.08;;
46731;SDS011;32477;51.474;5.696;2024-03-08T08:00:21;49.38;;;20.35;;
46731;SDS011;32477;51.474;5.696;2024-03-08T08:02:47;37.83;;;19.80;;
46731;SDS011;32477;51.474;5.696;2024-03-08T08:05:14;34.92;;;19.00;;
46731;SDS011;32477;51.474;5.696;2024-03-08T08:07:40;36.53;;;18.10;;
46731;SDS011;32477;51.474;5.696;2024-03-08T08:10:09;43.72;;;20.35;;
46731;SDS011;32477;51.474;5.696;2024-03-08T08:12:41;39.83;;;19.20;;
46731;SDS011;32477;51.474;5.696;2024-03-08T08:15:07;35.15;;;18.45;;
46731;SDS011;32477;51.474;5.696;2024-03-08T08:17:33;33.53;;;18.55;;
46731;SDS011;32477;51.474;5.696;2024-03-08T08:19:59;39.03;;;19.98;;
46731;SDS011;32477;51.474;5.696;2024-03-08T08:22:25;35.80;;;18.85;;
46731;SDS011;32477;51.474;5.696;2024-03-08T08:24:51;37.70;;;19.05;;
46731;SDS011;32477;51.474;5.696;2024-03-08T08:27:17;40.58;;;18.90;;
46731;SDS011;32477;51.474;5.696;2024-03-08T08:29:42;37.53;;;18.67;;
46731;SDS011;32477;51.474;5.696;2024-03-08T08:32:08;34.70;;;18.52;;
46731;SDS011;32477;51.474;5.696;2024-03-08T08:34:35;33.95;;;18.33;;
46731;SDS011;32477;51.474;5.696;2024-03-08T08:37:01;33.63;;;18.83;;
46731;SDS011;32477;51.474;5.696;2024-03-08T08:39:27;35.90;;;18.30;;
46731;SDS011;32477;51.474;5.696;2024-03-08T08:41:52;31.98;;;17.73;;
46731;SDS011;32477;51.474;5.696;2024-03-08T08:44:18;36.95;;;18.75;;
46731;SDS011;32477;51.474;5.696;2024-03-08T08:46:44;36.08;;;17.95;;
46731;SDS011;32477;51.474;5.696;2024-03-08T08:49:09;34.83;;;18.13;;
46731;SDS011;32477;51.474;5.696;2024-03-08T08:51:48;34.65;;;17.40;;
46731;SDS011;32477;51.474;5.696;2024-03-08T08:54:17;39.70;;;19.45;;
46731;SDS011;32477;51.474;5.696;2024-03-08T08:56:43;40.55;;;17.58;;
46731;SDS011;32477;51.474;5.696;2024-03-08T08:59:09;37.75;;;19.10;;
46731;SDS011;32477;51.474;5.696;2024-03-08T09:01:38;33.97;;;17.40;;
46731;SDS011;32477;51.474;5.696;2024-03-08T09:04:04;36.05;;;18.15;;
46731;SDS011;32477;51.474;5.696;2024-03-08T09:06:31;33.45;;;17.67;;
46731;SDS011;32477;51.474;5.696;2024-03-08T09:08:56;36.08;;;18.30;;
46731;SDS011;32477;51.474;5.696;2024-03-08T09:11:22;35.13;;;19.08;;
46731;SDS011;32477;51.474;5.696;2024-03-08T09:13:50;29.17;;;16.08;;
46731;SDS011;32477;51.474;5.696;2024-03-08T09:16:15;35.53;;;17.90;;
46731;SDS011;32477;51.474;5.696;2024-03-08T09:18:41;33.70;;;17.30;;
46731;SDS011;32477;51.474;5.696;2024-03-08T09:21:07;29.30;;;16.27;;
46731;SDS011;32477;51.474;5.696;2024-03-08T09:23:35;37.25;;;18.17;;
46731;SDS011;32477;51.474;5.696;2024-03-08T09:26:01;33.70;;;18.25;;
46731;SDS011;32477;51.474;5.696;2024-03-08T09:28:28;42.85;;;17.35;;
46731;SDS011;32477;51.474;5.696;2024-03-08T09:30:54;31.25;;;16.50;;
46731;SDS011;32477;51.474;5.696;2024-03-08T09:33:20;34.40;;;16.05;;
46731;SDS011;32477;51.474;5.696;2024-03-08T09:35:46;31.02;;;16.50;;
46731;SDS011;32477;51.474;5.696;2024-03-08T09:38:13;35.28;;;17.15;;
46731;SDS011;32477;51.474;5.696;2024-03-08T09:40:42;33.38;;;17.50;;
46731;SDS011;32477;51.474;5.696;2024-03-08T09:43:09;28.67;;;15.90;;
46731;SDS011;32477;51.474;5.696;2024-03-08T09:45:36;28.08;;;15.95;;
46731;SDS011;32477;51.474;5.696;2024-03-08T09:48:10;34.28;;;16.35;;
46731;SDS011;32477;51.474;5.696;2024-03-08T09:50:39;33.38;;;16.73;;
46731;SDS011;32477;51.474;5.696;2024-03-08T09:53:06;31.98;;;16.33;;
46731;SDS011;32477;51.474;5.696;2024-03-08T09:55:36;29.70;;;15.77;;
46731;SDS011;32477;51.474;5.696;2024-03-08T09:58:05;30.92;;;17.08;;
46731;SDS011;32477;51.474;5.696;2024-03-08T10:00:46;26.90;;;15.00;;
46731;SDS011;32477;51.474;5.696;2024-03-08T10:03:12;27.52;;;15.70;;
46731;SDS011;32477;51.474;5.696;2024-03-08T10:05:39;27.33;;;15.63;;
46731;SDS011;32477;51.474;5.696;2024-03-08T10:08:05;32.90;;;16.65;;
46731;SDS011;32477;51.474;5.696;2024-03-08T10:10:33;28.05;;;16.10;;
46731;SDS011;32477;51.474;5.696;2024-03-08T10:12:59;27.42;;;16.52;;
46731;SDS011;32477;51.474;5.696;2024-03-08T10:15:27;30.95;;;17.08;;
46731;SDS011;32477;51.474;5.696;2024-03-08T10:17:55;29.55;;;16.75;;
46731;SDS011;32477;51.474;5.696;2024-03-08T10:20:21;29.95;;;16.83;;
46731;SDS011;32477;51.474;5.696;2024-03-08T10:22:49;30.00;;;16.80;;
46731;SDS011;32477;51.474;5.696;2024-03-08T10:25:14;28.75;;;16.38;;
46731;SDS011;32477;51.474;5.696;2024-03-08T10:27:40;27.98;;;16.38;;
46731;SDS011;32477;51.474;5.696;2024-03-08T10:30:08;29.92;;;17.40;;
46731;SDS011;32477;51.474;5.696;2024-03-08T10:32:38;30.48;;;17.40;;
46731;SDS011;32477;51.474;5.696;2024-03-08T10:35:04;26.95;;;16.15;;
46731;SDS011;32477;51.474;5.696;2024-03-08T10:37:33;34.00;;;16.85;;
46731;SDS011;32477;51.474;5.696;2024-03-08T10:40:03;29.08;;;17.33;;
46731;SDS011;32477;51.474;5.696;2024-03-08T10:42:52;28.42;;;16.02;;
46731;SDS011;32477;51.474;5.696;2024-03-08T10:50:48;25.63;;;15.75;;
46731;SDS011;32477;51.474;5.696;2024-03-08T10:53:15;29.63;;;16.48;;
46731;SDS011;32477;51.474;5.696;2024-03-08T10:55:43;32.22;;;15.98;;
46731;SDS011;32477;51.474;5.696;2024-03-08T10:58:11;26.20;;;13.60;;
46731;SDS011;32477;51.474;5.696;2024-03-08T11:00:36;25.20;;;15.13;;
46731;SDS011;32477;51.474;5.696;2024-03-08T11:03:03;25.58;;;15.27;;
46731;SDS011;32477;51.474;5.696;2024-03-08T11:05:39;26.13;;;15.10;;
46731;SDS011;32477;51.474;5.696;2024-03-08T11:08:24;22.77;;;13.88;;
46731;SDS011;32477;51.474;5.696;2024-03-08T11:10:53;22.60;;;11.05;;
46731;SDS011;32477;51.474;5.696;2024-03-08T11:18:36;21.67;;;11.10;;
46731;SDS011;32477;51.474;5.696;2024-03-08T11:21:03;18.38;;;10.00;;
46731;SDS011;32477;51.474;5.696;2024-03-08T11:23:37;20.48;;;11.32;;
46731;SDS011;32477;51.474;5.696;2024-03-08T11:26:17;22.65;;;10.52;;
46731;SDS011;32477;51.474;5.696;2024-03-08T11:28:48;19.13;;;11.10;;
46731;SDS011;32477;51.474;5.696;2024-03-08T11:31:23;20.05;;;10.73;;
46731;SDS011;32477;51.474;5.696;2024-03-08T11:33:50;20.77;;;10.63;;
46731;SDS011;32477;51.474;5.696;2024-03-08T11:36:22;17.95;;;10.80;;
46731;SDS011;32477;51.474;5.696;2024-03-08T11:38:49;20.23;;;10.70;;
46731;SDS011;32477;51.474;5.696;2024-03-08T11:41:21;20.48;;;9.88;;
46731;SDS011;32477;51.474;5.696;2024-03-08T11:43:49;22.60;;;11.07;;
46731;SDS011;32477;51.474;5.696;2024-03-08T11:46:26;19.90;;;10.98;;
46731;SDS011;32477;51.474;5.696;2024-03-08T11:48:53;21.27;;;11.23;;
46731;SDS011;32477;51.474;5.696;2024-03-08T11:51:23;21.63;;;11.43;;
46731;SDS011;32477;51.474;5.696;2024-03-08T11:53:49;19.48;;;11.43;;
46731;SDS011;32477;51.474;5.696;2024-03-08T11:56:17;19.33;;;10.70;;
46731;SDS011;32477;51.474;5.696;2024-03-08T11:58:55;20.33;;;10.35;;
46731;SDS011;32477;51.474;5.696;2024-03-08T12:01:22;20.80;;;10.68;;
46731;SDS011;32477;51.474;5.696;2024-03-08T12:03:57;19.08;;;11.15;;
46731;SDS011;32477;51.474;5.696;2024-03-08T12:06:25;22.15;;;10.77;;
46731;SDS011;32477;51.474;5.696;2024-03-08T12:08:52;19.27;;;11.43;;
46731;SDS011;32477;51.474;5.696;2024-03-08T12:11:18;20.02;;;11.68;;
46731;SDS011;32477;51.474;5.696;2024-03-08T12:13:48;19.52;;;10.63;;
46731;SDS011;32477;51.474;5.696;2024-03-08T12:16:16;17.52;;;10.48;;
46731;SDS011;32477;51.474;5.696;2024-03-08T12:18:43;19.25;;;10.80;;
46731;SDS011;32477;51.474;5.696;2024-03-08T12:21:10;16.83;;;10.13;;
46731;SDS011;32477;51.474;5.696;2024-03-08T12:23:38;19.75;;;10.55;;
46731;SDS011;32477;51.474;5.696;2024-03-08T12:28:40;21.67;;;11.15;;
46731;SDS011;32477;51.474;5.696;2024-03-08T12:31:08;17.33;;;9.88;;
46731;SDS011;32477;51.474;5.696;2024-03-08T12:33:49;20.92;;;9.55;;
46731;SDS011;32477;51.474;5.696;2024-03-08T12:36:16;21.27;;;11.20;;
46731;SDS011;32477;51.474;5.696;2024-03-08T12:38:48;20.15;;;10.57;;
46731;SDS011;32477;51.474;5.696;2024-03-08T12:41:15;16.77;;;9.65;;
46731;SDS011;32477;51.474;5.696;2024-03-08T12:43:42;18.95;;;9.88;;
46731;SDS011;32477;51.474;5.696;2024-03-08T12:46:13;20.20;;;10.98;;
46731;SDS011;32477;51.474;5.696;2024-03-08T12:48:42;23.75;;;10.60;;
46731;SDS011;32477;51.474;5.696;2024-03-08T12:51:12;15.93;;;9.77;;
46731;SDS011;32477;51.474;5.696;2024-03-08T12:53:43;14.63;;;9.77;;
46731;SDS011;32477;51.474;5.696;2024-03-08T12:56:12;15.30;;;9.68;;
46731;SDS011;32477;51.474;5.696;2024-03-08T12:58:39;16.33;;;9.43;;
46731;SDS011;32477;51.474;5.696;2024-03-08T13:01:05;14.70;;;9.27;;
46731;SDS011;32477;51.474;5.696;2024-03-08T13:03:36;19.42;;;9.88;;
46731;SDS011;32477;51.474;5.696;2024-03-08T13:06:05;15.35;;;9.32;;
46731;SDS011;32477;51.474;5.696;2024-03-08T13:08:34;16.90;;;9.80;;
46731;SDS011;32477;51.474;5.696;2024-03-08T13:11:00;17.20;;;9.45;;
46731;SDS011;32477;51.474;5.696;2024-03-08T13:13:27;22.30;;;9.25;;
46731;SDS011;32477;51.474;5.696;2024-03-08T13:15:53;19.67;;;10.65;;
46731;SDS011;32477;51.474;5.696;2024-03-08T13:18:18;16.77;;;9.52;;
46731;SDS011;32477;51.474;5.696;2024-03-08T13:20:44;15.18;;;9.15;;
46731;SDS011;32477;51.474;5.696;2024-03-08T13:23:14;19.20;;;10.50;;
46731;SDS011;32477;51.474;5.696;2024-03-08T13:25:40;17.67;;;9.27;;
46731;SDS011;32477;51.474;5.696;2024-03-08T13:28:06;15.38;;;9.40;;
46731;SDS011;32477;51.474;5.696;2024-03-08T13:30:31;18.48;;;9.23;;
46731;SDS011;32477;51.474;5.696;2024-03-08T13:32:57;16.83;;;8.93;;
46731;SDS011;32477;51.474;5.696;2024-03-08T13:35:23;18.88;;;10.45;;
46731;SDS011;32477;51.474;5.696;2024-03-08T13:37:53;15.45;;;9.43;;
46731;SDS011;32477;51.474;5.696;2024-03-08T13:40:19;20.13;;;10.30;;
46731;SDS011;32477;51.474;5.696;2024-03-08T13:42:45;18.58;;;10.18;;
46731;SDS011;32477;51.474;5.696;2024-03-08T13:45:12;18.98;;;10.30;;
46731;SDS011;32477;51.474;5.696;2024-03-08T13:47:38;21.42;;;9.85;;
46731;SDS011;32477;51.474;5.696;2024-03-08T13:50:05;17.77;;;9.80;;
46731;SDS011;32477;51.474;5.696;2024-03-08T13:52:32;20.08;;;11.00;;
46731;SDS011;32477;51.474;5.696;2024-03-08T13:55:00;17.85;;;10.00;;
46731;SDS011;32477;51.474;5.696;2024-03-08T13:57:26;19.00;;;9.35;;
46731;SDS011;32477;51.474;5.696;2024-03-08T13:59:52;17.75;;;9.80;;
46731;SDS011;32477;51.474;5.696;2024-03-08T14:02:18;20.63;;;10.25;;
46731;SDS011;32477;51.474;5.696;2024-03-08T14:04:43;18.73;;;9.95;;
46731;SDS011;32477;51.474;5.696;2024-03-08T14:07:09;15.18;;;9.30;;
46731;SDS011;32477;51.474;5.696;2024-03-08T14:09:36;21.52;;;9.40;;
46731;SDS011;32477;51.474;5.696;2024-03-08T14:12:08;19.08;;;9.40;;
46731;SDS011;32477;51.474;5.696;2024-03-08T14:14:34;17.63;;;9.35;;
46731;SDS011;32477;51.474;5.696;2024-03-08T14:17:00;20.15;;;9.05;;
46731;SDS011;32477;51.474;5.696;2024-03-08T14:19:27;16.15;;;9.40;;
46731;SDS011;32477;51.474;5.696;2024-03-08T14:22:01;15.93;;;8.77;;
46731;SDS011;32477;51.474;5.696;2024-03-08T14:24:32;25.50;;;9.20;;
46731;SDS011;32477;51.474;5.696;2024-03-08T14:27:00;15.30;;;9.25;;
46731;SDS011;32477;51.474;5.696;2024-03-08T14:29:28;17.48;;;9.65;;
46731;SDS011;32477;51.474;5.696;2024-03-08T14:31:55;20.20;;;9.38;;
46731;SDS011;32477;51.474;5.696;2024-03-08T14:34:24;18.17;;;9.88;;
46731;SDS011;32477;51.474;5.696;2024-03-08T14:36:55;16.08;;;9.10;;